Time;durP1;ratioP1;P1;durP2;ratioP2;P2;SDS_P1;SDS_P2;PMS_P1;PMS_P2;Temp;Humidity;BMP_temperature;BMP_pressure;BME280_temperature;BME280_humidity;BME280_pressure;Samples;Min_cycle;Max_cycle;Signal;HPM_P1;HPM_P2
2021/07/20 00:03:26;;;;;;;11.90;10.68;;;;;;;19.27;59.01;100484.56;10255032;28;20043;-64
2021/07/20 00:08:28;;;;;;;12.57;11.27;;;;;;;19.18;59.21;100496.41;10253186;28;20051;-65
2021/07/20 00:13:29;;;;;;;13.30;11.05;;;;;;;19.13;59.81;100482.63;10257033;28;20105;-65
2021/07/20 00:18:33;;;;;;;13.95;11.02;;;;;;;18.99;59.89;100471.53;10262122;28;20051;-65
2021/07/20 00:23:35;;;;;;;15.95;11.38;;;;;;;19.01;60.12;100480.28;10260197;28;20058;-65
2021/07/20 00:28:37;;;;;;;10.88;9.75;;;;;;;19.01;60.14;100490.22;10250470;28;20678;-66
2021/07/20 00:33:38;;;;;;;11.13;9.93;;;;;;;18.88;60.32;100479.97;10258047;28;20608;-65
2021/07/20 00:38:40;;;;;;;14.02;10.07;;;;;;;18.82;60.25;100475.22;10262574;28;20054;-65
2021/07/20 00:43:41;;;;;;;12.02;10.00;;;;;;;18.92;60.57;100486.72;10261494;28;20047;-65
2021/07/20 00:48:43;;;;;;;12.32;9.77;;;;;;;18.93;60.80;100482.16;10267875;28;20057;-65
2021/07/20 00:53:46;;;;;;;13.93;10.80;;;;;;;18.83;60.60;100487.72;10258685;28;20051;-65
2021/07/20 00:58:48;;;;;;;14.07;10.38;;;;;;;18.72;60.97;100484.38;10267216;28;20054;-65
2021/07/20 01:03:50;;;;;;;14.13;10.73;;;;;;;18.69;61.22;100476.63;10267780;28;20087;-65
2021/07/20 01:08:53;;;;;;;13.98;10.93;;;;;;;18.61;61.48;100463.13;10266853;28;20053;-65
2021/07/20 01:13:56;;;;;;;14.60;10.48;;;;;;;18.59;61.29;100457.09;10264631;28;20054;-65
2021/07/20 01:19:01;;;;;;;11.55;9.90;;;;;;;18.66;61.37;100466.19;10269072;28;20619;-66
2021/07/20 01:24:12;;;;;;;11.52;9.38;;;;;;;18.51;61.62;100459.78;10273677;28;20055;-66
2021/07/20 01:29:15;;;;;;;12.18;10.60;;;;;;;18.52;61.67;100465.00;10265330;28;20059;-66
2021/07/20 01:34:18;;;;;;;11.23;9.60;;;;;;;18.43;61.95;100449.00;10265922;28;20051;-67
2021/07/20 01:39:21;;;;;;;14.80;10.15;;;;;;;18.53;61.70;100457.78;10259358;28;20058;-65
2021/07/20 01:44:24;;;;;;;13.02;10.50;;;;;;;18.41;62.01;100451.06;10260733;28;20501;-65
2021/07/20 01:49:27;;;;;;;12.30;10.27;;;;;;;18.31;62.51;100462.81;10260978;28;20043;-66
2021/07/20 01:54:30;;;;;;;12.13;10.18;;;;;;;18.42;61.95;100468.88;10260309;28;20043;-66
2021/07/20 01:59:31;;;;;;;13.80;10.93;;;;;;;18.38;62.40;100474.63;10256893;28;20058;-66
2021/07/20 02:09:48;;;;;;;14.70;10.77;;;;;;;18.44;62.90;100472.28;10266611;28;20055;-66
2021/07/20 02:14:50;;;;;;;14.75;9.95;;;;;;;18.16;64.46;100469.91;10264769;28;20571;-66
2021/07/20 02:19:57;;;;;;;12.63;10.18;;;;;;;18.28;63.28;100475.81;10268481;28;20046;-65
2021/07/20 02:24:59;;;;;;;14.68;10.88;;;;;;;18.28;63.88;100473.94;10262183;28;20054;-64
2021/07/20 02:30:07;;;;;;;12.50;10.57;;;;;;;18.22;62.92;100474.63;10272481;28;20050;-64
2021/07/20 02:35:13;;;;;;;15.75;11.63;;;;;;;18.12;63.13;100464.03;10263402;28;20047;-66
2021/07/20 02:40:15;;;;;;;13.07;10.65;;;;;;;18.17;63.31;100471.59;10262059;28;20047;-65
2021/07/20 02:45:17;;;;;;;15.55;11.07;;;;;;;18.07;63.27;100460.97;10267686;28;20054;-64
2021/07/20 02:50:24;;;;;;;14.65;10.48;;;;;;;17.99;63.53;100464.50;10257462;28;20054;-65
2021/07/20 02:55:28;;;;;;;13.35;10.63;;;;;;;17.57;66.71;100459.19;10256468;28;20054;-65
2021/07/20 03:00:31;;;;;;;12.30;10.95;;;;;;;17.82;64.80;100458.22;10254536;28;20149;-64
2021/07/20 03:05:33;;;;;;;15.60;10.63;;;;;;;17.80;64.86;100448.63;10261924;28;20089;-65
2021/07/20 03:10:36;;;;;;;12.98;11.10;;;;;;;17.77;65.14;100436.31;10257765;28;20055;-64
2021/07/20 03:15:39;;;;;;;14.47;11.67;;;;;;;17.80;64.87;100443.25;10254586;28;20047;-64
2021/07/20 03:20:42;;;;;;;17.48;11.48;;;;;;;17.75;65.11;100451.00;10265910;28;20042;-64
2021/07/20 03:25:45;;;;;;;14.85;11.55;;;;;;;17.80;65.19;100459.41;10261393;28;20059;-65
2021/07/20 03:30:46;;;;;;;13.60;9.63;;;;;;;17.81;65.13;100453.00;10261643;28;20058;-64
2021/07/20 03:35:50;;;;;;;13.82;10.25;;;;;;;17.79;64.66;100452.31;10257028;28;20050;-64
2021/07/20 03:40:52;;;;;;;15.07;11.87;;;;;;;17.74;64.96;100463.59;10256685;28;20047;-64
2021/07/20 03:45:55;;;;;;;14.70;10.75;;;;;;;17.68;65.34;100461.56;10264185;28;20042;-65
2021/07/20 03:50:57;;;;;;;13.65;11.00;;;;;;;17.58;65.46;100450.94;10258158;28;20062;-65
2021/07/20 03:56:01;;;;;;;12.77;11.05;;;;;;;17.55;65.55;100459.34;10252523;28;20054;-64
2021/07/20 04:01:04;;;;;;;13.47;11.23;;;;;;;17.55;65.60;100471.94;10259613;28;20046;-64
2021/07/20 04:06:12;;;;;;;13.10;11.37;;;;;;;17.60;65.59;100469.63;10258786;28;20046;-66
2021/07/20 04:11:15;;;;;;;12.00;10.45;;;;;;;17.56;65.53;100461.03;10252454;28;20054;-64
2021/07/20 04:16:16;;;;;;;14.20;11.00;;;;;;;17.52;65.50;100456.13;10251551;28;20047;-65
2021/07/20 04:21:19;;;;;;;15.02;11.32;;;;;;;17.57;65.67;100478.88;10271095;28;20117;-69
2021/07/20 04:26:22;;;;;;;12.05;10.50;;;;;;;17.47;66.10;100462.88;10267707;28;20165;-66
2021/07/20 04:31:26;;;;;;;13.98;11.27;;;;;;;17.53;66.08;100485.56;10265803;28;20501;-66
2021/07/20 04:36:28;;;;;;;16.48;10.73;;;;;;;17.55;65.87;100483.56;10263864;28;20097;-65
2021/07/20 04:41:30;;;;;;;13.80;11.10;;;;;;;17.53;66.00;100482.03;10262985;28;20101;-65
2021/07/20 04:46:32;;;;;;;13.52;11.52;;;;;;;17.47;66.31;100486.22;10258800;28;20534;-66
2021/07/20 04:51:34;;;;;;;13.70;10.90;;;;;;;17.54;66.32;100486.44;10260891;28;20046;-65
2021/07/20 04:56:35;;;;;;;13.60;10.30;;;;;;;17.53;66.23;100473.97;10261314;28;20396;-65
2021/07/20 05:01:40;;;;;;;14.55;11.15;;;;;;;17.66;66.17;100483.25;10250745;28;20054;-65
2021/07/20 05:06:46;;;;;;;15.05;10.93;;;;;;;17.65;65.88;100475.34;10246172;28;20050;-65
2021/07/20 05:11:48;;;;;;;16.65;10.98;;;;;;;17.64;66.33;100487.97;10259028;28;20054;-65
2021/07/20 05:16:50;;;;;;;12.32;10.70;;;;;;;17.73;66.66;100498.75;10262335;28;20055;-65
2021/07/20 05:21:53;;;;;;;13.05;10.27;;;;;;;17.72;66.23;100486.31;10271962;28;20058;-65
2021/07/20 05:26:56;;;;;;;14.97;11.03;;;;;;;17.89;65.75;100493.44;10282331;28;20046;-66
2021/07/20 05:32:00;;;;;;;14.63;11.60;;;;;;;18.06;65.68;100501.53;10280231;28;20059;-65
2021/07/20 05:37:02;;;;;;;17.10;11.95;;;;;;;18.01;65.21;100489.44;10279921;28;20417;-66
2021/07/20 05:42:04;;;;;;;17.42;11.15;;;;;;;18.16;65.08;100510.31;10275952;28;20059;-66
2021/07/20 05:47:08;;;;;;;15.98;11.27;;;;;;;18.14;65.31;100520.41;10289913;28;20480;-66
2021/07/20 05:52:30;;;;;;;14.30;11.75;;;;;;;18.28;65.32;100517.06;10287251;28;20610;-65
2021/07/20 05:57:32;;;;;;;15.05;11.77;;;;;;;18.45;65.07;100528.69;10286879;28;20076;-68
2021/07/20 06:02:36;;;;;;;13.73;11.32;;;;;;;18.54;64.77;100521.47;10284345;28;20054;-65
2021/07/20 06:07:39;;;;;;;12.48;10.07;;;;;;;18.62;64.64;100526.81;10286343;28;20050;-66
2021/07/20 06:12:43;;;;;;;16.52;10.63;;;;;;;18.72;63.78;100538.28;10281198;28;20728;-64
2021/07/20 06:17:46;;;;;;;12.18;10.25;;;;;;;18.80;64.59;100537.44;10281750;28;20042;-65
2021/07/20 06:22:53;;;;;;;11.00;9.87;;;;;;;18.91;63.62;100536.25;10284809;28;20055;-64
2021/07/20 06:27:57;;;;;;;15.90;10.18;;;;;;;19.06;62.54;100537.22;10282033;28;20058;-65
2021/07/20 06:32:58;;;;;;;;;;;;;;;19.13;62.54;100548.19;10289165;28;20050;-66
2021/07/20 06:38:00;;;;;;;13.02;10.45;;;;;;;19.22;62.39;100551.72;10296843;28;19929;-65
2021/07/20 06:43:02;;;;;;;12.68;8.68;;;;;;;19.35;61.84;100562.81;10297551;28;20121;-67
2021/07/20 06:48:05;;;;;;;10.80;9.48;;;;;;;19.39;61.66;100552.50;10291460;28;20425;-65
2021/07/20 06:53:12;;;;;;;12.63;9.50;;;;;;;19.53;60.51;100538.28;10287712;28;20061;-66
2021/07/20 06:58:18;;;;;;;13.88;9.07;;;;;;;19.56;59.88;100559.53;10291171;28;20436;-66
2021/07/20 07:03:25;;;;;;;9.65;7.80;;;;;;;19.72;59.66;100542.41;10284758;28;20062;-67
2021/07/20 07:08:27;;;;;;;10.65;9.20;;;;;;;20.03;57.62;100565.09;10289013;28;20149;-67
2021/07/20 07:13:29;;;;;;;12.35;8.88;;;;;;;20.21;57.18;100575.63;10284415;28;20187;-67
2021/07/20 07:18:31;;;;;;;11.85;8.80;;;;;;;20.17;56.80;100560.75;10288036;28;20121;-66
2021/07/20 07:23:34;;;;;;;9.52;8.38;;;;;;;20.12;56.38;100569.41;10295322;28;20047;-66
2021/07/20 07:28:38;;;;;;;9.82;7.57;;;;;;;20.30;56.32;100555.59;10288231;28;20050;-64
2021/07/20 07:33:40;;;;;;;8.70;7.78;;;;;;;20.45;55.64;100570.03;10284828;28;20212;-67
2021/07/20 07:38:45;;;;;;;10.38;7.60;;;;;;;20.44;55.68;100568.31;10286793;28;20500;-67
2021/07/20 07:43:48;;;;;;;11.23;8.05;;;;;;;20.83;55.19;100567.34;10284594;28;20502;-66
2021/07/20 07:48:50;;;;;;;9.52;7.35;;;;;;;20.97;54.57;100567.56;10267542;22;20054;-69
2021/07/20 07:53:58;;;;;;;9.27;7.45;;;;;;;21.31;53.81;100569.75;10283672;28;20062;-69
2021/07/20 07:59:00;;;;;;;9.48;7.80;;;;;;;21.56;52.41;100566.81;10273233;28;20055;-69
2021/07/20 08:04:03;;;;;;;10.90;7.60;;;;;;;21.62;51.40;100565.19;10254662;28;20050;-69
2021/07/20 08:09:05;;;;;;;9.05;6.95;;;;;;;21.79;50.72;100558.53;10256069;28;20054;-69
2021/07/20 08:14:07;;;;;;;11.88;8.15;;;;;;;21.52;50.89;100569.03;10254802;28;20094;-68
2021/07/20 08:19:10;;;;;;;10.30;7.50;;;;;;;21.73;51.29;100570.13;10256312;28;20050;-68
2021/07/20 08:24:13;;;;;;;9.20;6.83;;;;;;;22.16;50.41;100562.09;10255421;28;20078;-72
2021/07/20 08:29:17;;;;;;;;;;;;;;;22.70;48.81;100570.75;10251451;28;20047;-68
2021/07/20 08:34:20;;;;;;;8.18;7.22;;;;;;;22.37;48.50;100557.75;10251320;28;20024;-72
2021/07/20 08:39:25;;;;;;;10.80;7.55;;;;;;;22.05;48.68;100559.88;10249143;28;20051;-69
2021/07/20 08:45:04;;;;;;;9.98;7.40;;;;;;;22.04;47.39;100564.47;10250940;28;20066;-69
2021/07/20 08:50:21;;;;;;;9.27;7.00;;;;;;;22.15;46.45;100568.53;10251531;28;20517;-71
2021/07/20 08:55:26;;;;;;;7.13;6.40;;;;;;;22.18;46.63;100567.31;10251270;28;20054;-68
2021/07/20 09:00:49;;;;;;;6.80;5.90;;;;;;;22.39;45.41;100555.69;10251550;28;20046;-71
2021/07/20 09:06:05;;;;;;;8.23;7.43;;;;;;;22.68;44.06;100565.53;10240751;28;20058;-69
2021/07/20 09:11:38;;;;;;;9.27;6.75;;;;;;;23.45;43.82;100565.69;10249517;28;20286;-69
2021/07/20 09:16:43;;;;;;;9.27;6.17;;;;;;;23.67;42.02;100568.28;10245508;28;20045;-67
2021/07/20 09:21:49;;;;;;;10.10;6.25;;;;;;;23.97;40.81;100558.81;10247227;28;20047;-71
2021/07/20 09:26:59;;;;;;;6.90;5.53;;;;;;;24.24;40.90;100572.47;10248989;28;20043;-69
2021/07/20 09:32:03;;;;;;;14.70;7.90;;;;;;;23.89;41.48;100574.50;10247015;28;20051;-71
2021/07/20 09:37:06;;;;;;;8.10;5.70;;;;;;;24.65;39.56;100571.53;10247690;28;20055;-71
2021/07/20 09:42:27;;;;;;;6.88;6.28;;;;;;;25.31;38.75;100572.56;10245926;28;20120;-68
2021/07/20 09:48:00;;;;;;;7.20;6.35;;;;;;;25.43;37.21;100567.25;10237584;28;20043;-70
2021/07/20 09:53:22;;;;;;;18.73;10.23;;;;;;;25.91;35.71;100558.69;10243005;28;20640;-71
2021/07/20 09:58:35;;;;;;;8.20;6.15;;;;;;;26.54;35.79;100569.88;10245547;28;21529;-70
2021/07/20 10:03:52;;;;;;;6.50;5.70;;;;;;;26.82;34.62;100555.81;10240120;28;20093;-70
2021/07/20 10:09:01;;;;;;;6.88;5.72;;;;;;;26.69;34.63;100548.56;10243094;28;20038;-71
2021/07/20 10:14:15;;;;;;;7.28;6.05;;;;;;;26.36;34.68;100548.81;10246362;28;20553;-71
2021/07/20 10:19:27;;;;;;;6.55;5.30;;;;;;;25.95;36.58;100545.47;10244941;28;20047;-69
2021/07/20 10:24:32;;;;;;;6.68;5.60;;;;;;;26.88;34.98;100545.91;10245653;28;20038;-71
2021/07/20 10:29:52;;;;;;;6.38;5.15;;;;;;;26.71;33.66;100537.41;10240894;28;20182;-70
2021/07/20 10:34:59;;;;;;;6.28;5.68;;;;;;;27.50;33.16;100538.53;10236890;28;20428;-70
2021/07/20 10:40:06;;;;;;;7.70;6.03;;;;;;;26.97;33.11;100541.81;10244402;28;20097;-70
2021/07/20 10:45:16;;;;;;;7.30;5.05;;;;;;;27.73;31.81;100536.13;10245964;28;20449;-69
2021/07/20 10:50:36;;;;;;;7.78;5.28;;;;;;;28.14;31.09;100532.66;10241761;28;20043;-69
2021/07/20 10:55:59;;;;;;;6.57;5.55;;;;;;;28.71;30.64;100525.91;10239435;28;20571;-72
2021/07/20 11:01:08;;;;;;;6.25;5.65;;;;;;;29.06;29.91;100517.66;10240047;28;20059;-71
2021/07/20 11:06:13;;;;;;;6.13;5.05;;;;;;;28.69;31.23;100515.19;10241555;28;20046;-72
2021/07/20 11:11:44;;;;;;;7.88;5.88;;;;;;;27.51;32.51;100523.78;10238682;28;20448;-70
2021/07/20 11:16:46;;;;;;;6.57;5.57;;;;;;;28.13;31.07;100519.22;10240555;28;20066;-71
2021/07/20 11:21:48;;;;;;;6.30;5.28;;;;;;;26.95;32.83;100519.38;10244264;28;20066;-71
2021/07/20 11:26:51;;;;;;;6.07;5.50;;;;;;;28.21;31.32;100505.22;10249362;28;20573;-71
2021/07/20 11:31:54;;;;;;;;;;;;;;;28.77;30.68;100507.69;10258940;28;20038;-72
2021/07/20 11:37:02;;;;;;;10.27;5.32;;;;;;;29.22;29.98;100504.31;10247086;28;20364;-74
2021/07/20 11:42:35;;;;;;;11.60;8.88;;;;;;;29.18;29.84;100505.84;10242699;28;20047;-71
2021/07/20 11:47:47;;;;;;;5.53;4.57;;;;;;;29.50;29.18;100495.31;10242884;28;20058;-70
2021/07/20 11:53:13;;;;;;;5.53;4.55;;;;;;;29.42;28.78;100490.22;10241851;28;20054;-70
2021/07/20 11:58:52;;;;;;;7.60;6.00;;;;;;;29.46;29.03;100493.31;10236642;28;20042;-67
2021/07/20 12:04:06;;;;;;;5.60;4.97;;;;;;;29.51;29.29;100496.97;10240728;28;20078;-72
2021/07/20 12:09:24;;;;;;;6.38;5.50;;;;;;;29.34;29.39;100485.13;10239605;28;20092;-70
2021/07/20 12:14:30;;;;;;;6.20;5.60;;;;;;;29.25;29.60;100488.22;10241242;28;20067;-69
2021/07/20 12:19:35;;;;;;;5.55;5.00;;;;;;;29.15;29.74;100492.63;10244803;28;20061;-69
2021/07/20 12:24:38;;;;;;;6.95;5.55;;;;;;;29.54;29.76;100479.19;10244654;28;20697;-70
2021/07/20 12:29:42;;;;;;;5.47;4.97;;;;;;;29.46;29.56;100480.44;10242087;28;20038;-70
2021/07/20 12:34:49;;;;;;;5.82;4.95;;;;;;;29.43;30.24;100472.69;10244362;28;20440;-70
2021/07/20 12:39:58;;;;;;;5.82;5.32;;;;;;;29.10;30.02;100474.16;10241526;28;20043;-70
2021/07/20 12:45:02;;;;;;;7.05;5.95;;;;;;;28.88;29.93;100477.53;10252623;28;20055;-70
2021/07/20 12:50:05;;;;;;;7.07;5.13;;;;;;;28.47;30.79;100470.25;10246003;28;20075;-70
2021/07/20 12:55:08;;;;;;;7.30;5.32;;;;;;;28.77;30.74;100469.34;10246905;28;20501;-70
2021/07/20 13:00:10;;;;;;;7.40;5.57;;;;;;;28.82;30.43;100455.75;10242984;28;20493;-70
2021/07/20 13:05:14;;;;;;;;;;;;;;;29.12;30.01;100454.75;10245847;28;20378;-70
2021/07/20 13:10:16;;;;;;;6.65;5.18;;;;;;;28.99;29.93;100451.22;10244801;28;19937;-69
2021/07/20 13:15:22;;;;;;;6.75;5.50;;;;;;;28.96;29.97;100453.56;10241617;28;20472;-69
2021/07/20 13:20:27;;;;;;;5.53;5.03;;;;;;;28.54;30.42;100444.41;10247317;28;20063;-68
2021/07/20 13:25:29;;;;;;;5.97;5.05;;;;;;;28.70;30.10;100447.53;10249062;28;20043;-70
2021/07/20 13:30:31;;;;;;;7.38;5.93;;;;;;;28.79;30.30;100448.84;10241005;28;20077;-69
2021/07/20 13:35:32;;;;;;;;;;;;;;;28.59;30.59;100440.97;10247726;28;20114;-69
2021/07/20 13:40:34;;;;;;;5.40;4.88;;;;;;;28.46;30.37;100452.97;10242483;28;19940;-70
2021/07/20 13:45:37;;;;;;;6.40;4.70;;;;;;;28.24;31.07;100449.16;10245351;28;20528;-69
2021/07/20 13:50:40;;;;;;;;;;;;;;;28.18;30.37;100457.25;10273587;23;20292;-67
2021/07/20 13:55:47;;;;;;;8.00;5.32;;;;;;;28.08;30.46;100448.78;10377455;28;19921;-67
2021/07/20 14:00:49;;;;;;;5.82;4.57;;;;;;;28.05;30.40;100446.50;10366144;28;20032;-67
2021/07/20 14:05:52;;;;;;;6.97;5.68;;;;;;;27.60;31.35;100438.75;10360035;28;20046;-67
2021/07/20 14:10:56;;;;;;;;;;;;;;;27.20;31.47;100447.44;10352359;28;20105;-67
2021/07/20 14:15:59;;;;;;;6.43;5.18;;;;;;;26.73;32.56;100450.69;10366376;28;19928;-66
2021/07/20 14:21:02;;;;;;;6.68;5.55;;;;;;;26.75;32.85;100449.41;10340236;28;20054;-66
2021/07/20 14:26:09;;;;;;;7.63;5.38;;;;;;;26.73;32.76;100429.66;10333621;28;20076;-66
2021/07/20 14:31:14;;;;;;;6.40;5.32;;;;;;;26.96;32.49;100436.34;10333440;28;20050;-65
2021/07/20 14:36:39;;;;;;;6.78;4.90;;;;;;;26.88;32.39;100437.50;10321087;28;20043;-66
2021/07/20 14:41:40;;;;;;;6.05;4.85;;;;;;;26.84;32.81;100435.44;10318556;28;20053;-66
2021/07/20 14:46:43;;;;;;;7.97;5.38;;;;;;;26.64;32.59;100422.81;10293480;28;20061;-66
2021/07/20 14:51:45;;;;;;;6.80;4.25;;;;;;;26.76;32.65;100431.94;10319281;28;20100;-65
2021/07/20 14:56:50;;;;;;;5.30;4.80;;;;;;;26.71;32.62;100431.78;10310964;28;20054;-66
2021/07/20 15:01:51;;;;;;;7.28;5.00;;;;;;;26.69;32.14;100433.06;10321231;28;20057;-66
2021/07/20 15:07:16;;;;;;;6.32;4.47;;;;;;;26.48;32.38;100426.13;10311023;28;20128;-65
2021/07/20 15:12:23;;;;;;;6.50;5.00;;;;;;;26.40;32.77;100428.06;10308284;28;20213;-65
2021/07/20 15:17:24;;;;;;;6.57;4.60;;;;;;;26.24;33.13;100418.56;10305411;28;20050;-65
2021/07/20 15:22:29;;;;;;;6.20;4.47;;;;;;;26.32;32.36;100425.63;10314198;28;20508;-66
2021/07/20 15:27:36;;;;;;;6.03;4.88;;;;;;;25.97;32.56;100414.34;10318421;28;20050;-66
2021/07/20 15:32:38;;;;;;;6.78;5.05;;;;;;;25.88;33.03;100416.50;10312207;28;20049;-65
2021/07/20 15:37:44;;;;;;;6.88;4.72;;;;;;;26.01;33.55;100426.53;10319517;28;20045;-65
2021/07/20 15:42:48;;;;;;;6.85;4.93;;;;;;;26.02;33.39;100429.03;10315688;28;20049;-64
2021/07/20 15:47:52;;;;;;;7.25;5.35;;;;;;;26.11;33.30;100432.31;10314994;28;20054;-66
2021/07/20 15:52:57;;;;;;;5.18;3.97;;;;;;;26.07;32.93;100426.44;10315651;28;20053;-65
2021/07/20 15:58:03;;;;;;;5.18;4.68;;;;;;;26.02;33.36;100411.84;10317080;28;20054;-65
2021/07/20 16:03:07;;;;;;;5.30;4.60;;;;;;;25.99;33.21;100424.00;10304382;28;20412;-65
2021/07/20 16:08:10;;;;;;;5.43;4.05;;;;;;;25.95;33.26;100428.19;10313295;28;20137;-64
2021/07/20 16:13:11;;;;;;;4.78;3.92;;;;;;;25.86;33.53;100424.91;10311391;28;20060;-64
2021/07/20 16:18:18;;;;;;;6.38;4.78;;;;;;;25.85;33.39;100428.69;10305954;28;20198;-64
2021/07/20 16:23:22;;;;;;;4.60;4.13;;;;;;;25.73;40.97;100420.38;10319938;28;20043;-66
2021/07/20 16:28:24;;;;;;;5.63;4.72;;;;;;;25.61;35.34;100427.56;10325602;28;20076;-64
2021/07/20 16:33:27;;;;;;;4.63;4.07;;;;;;;25.57;35.05;100426.34;10301916;28;20054;-66
2021/07/20 16:38:29;;;;;;;6.93;4.40;;;;;;;25.52;34.19;100423.44;10318479;28;20050;-66
2021/07/20 16:43:32;;;;;;;8.63;5.20;;;;;;;25.53;35.23;100431.38;10318657;28;20733;-66
2021/07/20 16:48:34;;;;;;;6.18;4.72;;;;;;;25.40;35.51;100418.69;10318083;28;20054;-65
2021/07/20 16:53:43;;;;;;;7.97;5.05;;;;;;;25.40;34.46;100432.31;10318584;28;20083;-67
2021/07/20 16:58:47;;;;;;;6.80;4.82;;;;;;;25.33;34.57;100426.06;10318405;28;20061;-65
2021/07/20 17:03:51;;;;;;;5.45;4.00;;;;;;;25.32;35.13;100424.38;10318469;28;20076;-66
2021/07/20 17:08:52;;;;;;;4.75;4.13;;;;;;;25.33;35.18;100425.22;10309930;28;21390;-66
2021/07/20 17:13:55;;;;;;;6.72;4.80;;;;;;;25.23;35.06;100431.09;10292773;28;20456;-66
2021/07/20 17:18:56;;;;;;;6.37;4.70;;;;;;;25.08;35.02;100422.38;10309910;28;20069;-67
2021/07/20 17:23:58;;;;;;;6.32;5.10;;;;;;;25.03;36.25;100426.56;10321593;28;20058;-66
2021/07/20 17:29:01;;;;;;;7.32;4.47;;;;;;;24.94;35.98;100427.84;10317126;28;20062;-66
2021/07/20 17:34:04;;;;;;;6.00;4.78;;;;;;;24.82;36.47;100422.22;10314001;28;20622;-67
2021/07/20 17:39:09;;;;;;;;;;;;;;;24.84;36.10;100438.34;10299562;28;20560;-66
2021/07/20 17:44:11;;;;;;;5.10;4.28;;;;;;;24.69;36.25;100446.75;10297580;28;20371;-66
2021/07/20 17:49:12;;;;;;;5.80;4.53;;;;;;;24.58;36.36;100450.97;10315462;28;20061;-66
2021/07/20 17:54:22;;;;;;;5.85;4.65;;;;;;;24.50;36.84;100453.84;10292063;28;20049;-65
2021/07/20 17:59:25;;;;;;;6.45;5.10;;;;;;;24.38;36.70;100441.94;10318380;28;20054;-66
2021/07/20 18:04:27;;;;;;;5.70;4.75;;;;;;;24.35;36.66;100452.19;10312268;28;20058;-66
2021/07/20 18:09:29;;;;;;;5.97;4.75;;;;;;;24.25;37.44;100462.66;10312522;28;20074;-66
2021/07/20 18:14:30;;;;;;;6.32;5.22;;;;;;;24.20;37.79;100462.47;10311047;28;20046;-66
2021/07/20 18:19:32;;;;;;;6.07;4.93;;;;;;;24.13;38.27;100459.72;10294588;28;20051;-67
2021/07/20 18:24:33;;;;;;;5.85;4.68;;;;;;;24.04;38.50;100460.16;10316177;28;23045;-66
2021/07/20 18:29:35;;;;;;;6.00;5.10;;;;;;;23.97;38.82;100460.13;10310577;28;20051;-65
2021/07/20 18:34:36;;;;;;;6.93;4.60;;;;;;;23.86;38.86;100464.28;10303701;28;20583;-67
2021/07/20 18:39:38;;;;;;;5.25;4.40;;;;;;;23.81;39.02;100456.72;10289766;28;20046;-66
2021/07/20 18:44:40;;;;;;;6.68;4.30;;;;;;;23.68;39.30;100462.13;10292377;28;20142;-66
2021/07/20 18:49:41;;;;;;;6.53;5.07;;;;;;;23.61;39.78;100467.53;10317123;28;20054;-67
2021/07/20 18:54:43;;;;;;;6.95;4.53;;;;;;;23.48;40.48;100452.03;10289398;28;20120;-66
2021/07/20 18:59:44;;;;;;;6.65;5.22;;;;;;;23.50;40.46;100467.28;10291425;28;20061;-66
2021/07/20 19:04:46;;;;;;;5.18;4.38;;;;;;;23.37;40.39;100462.63;10312843;28;20057;-66
2021/07/20 19:09:47;;;;;;;8.27;5.32;;;;;;;23.24;41.00;100466.13;10314734;28;20069;-67
2021/07/20 19:14:49;;;;;;;6.93;4.72;;;;;;;23.24;40.89;100494.13;10301895;28;20061;-66
2021/07/20 19:19:50;;;;;;;6.05;5.18;;;;;;;23.11;41.01;100483.19;10304761;28;20054;-66
2021/07/20 19:24:53;;;;;;;5.78;5.10;;;;;;;23.07;41.54;100498.16;10309519;28;20055;-66
2021/07/20 19:29:55;;;;;;;8.37;5.77;;;;;;;23.00;41.74;100502.72;10314326;28;20053;-66
2021/07/20 19:34:56;;;;;;;7.93;4.93;;;;;;;22.90;42.33;100506.63;10308427;28;20145;-65
2021/07/20 19:39:58;;;;;;;6.43;5.68;;;;;;;22.83;42.37;100513.88;10305471;28;20061;-65
2021/07/20 19:44:59;;;;;;;5.57;4.97;;;;;;;22.83;42.73;100527.44;10301929;28;20076;-65
2021/07/20 19:50:04;;;;;;;6.93;5.22;;;;;;;22.75;42.88;100533.03;10279339;28;20069;-66
2021/07/20 19:55:07;;;;;;;10.38;6.00;;;;;;;22.68;43.20;100534.84;10296568;28;20062;-65
2021/07/20 20:00:14;;;;;;;6.40;5.22;;;;;;;22.57;43.22;100528.91;10302738;28;20042;-66
2021/07/20 20:05:16;;;;;;;6.72;5.00;;;;;;;22.50;43.68;100530.72;10302817;28;20058;-65
2021/07/20 20:10:18;;;;;;;7.35;4.68;;;;;;;22.21;44.07;100548.78;10304741;28;20058;-65
2021/07/20 20:15:19;;;;;;;6.43;4.72;;;;;;;21.98;44.90;100540.84;10302654;28;20054;-64
2021/07/20 20:20:21;;;;;;;5.97;4.32;;;;;;;21.88;45.45;100556.56;10313182;22;20468;-64
2021/07/20 20:25:23;;;;;;;6.82;4.85;;;;;;;21.85;45.84;100555.06;10250628;28;20065;-62
2021/07/20 20:30:27;;;;;;;6.32;4.55;;;;;;;21.84;46.23;100563.38;10259672;28;20373;-62
2021/07/20 20:35:29;;;;;;;7.50;5.60;;;;;;;21.80;46.51;100567.50;10250722;28;20054;-63
2021/07/20 20:40:31;;;;;;;8.40;5.68;;;;;;;21.77;47.04;100568.75;10250410;28;20051;-62
2021/07/20 20:45:34;;;;;;;7.05;4.93;;;;;;;21.65;47.38;100575.69;10246257;28;20034;-62
2021/07/20 20:50:35;;;;;;;8.40;5.37;;;;;;;21.60;47.37;100583.50;10248086;28;20630;-62
2021/07/20 20:55:37;;;;;;;5.70;4.78;;;;;;;21.44;48.58;100596.19;10250460;28;20051;-61
2021/07/20 21:00:39;;;;;;;6.93;5.97;;;;;;;21.43;48.93;100602.63;10247445;28;20476;-61
2021/07/20 21:05:44;;;;;;;8.65;6.07;;;;;;;21.37;49.48;100606.06;10251998;28;20117;-62
2021/07/20 21:10:47;;;;;;;7.43;5.70;;;;;;;21.28;49.27;100616.16;10247793;28;20050;-60
2021/07/20 21:15:49;;;;;;;6.90;5.38;;;;;;;21.22;49.38;100618.78;10245534;28;20106;-63
2021/07/20 21:20:51;;;;;;;7.60;5.15;;;;;;;20.97;50.16;100632.50;10258905;28;20215;-61
2021/07/20 21:25:52;;;;;;;9.35;5.35;;;;;;;20.91;49.90;100623.28;10253360;28;20050;-61
2021/07/20 21:30:54;;;;;;;8.13;5.22;;;;;;;20.88;50.16;100628.19;10255632;28;20059;-60
2021/07/20 21:35:56;;;;;;;7.57;4.93;;;;;;;20.86;50.28;100631.09;10242769;28;20055;-67
2021/07/20 21:40:58;;;;;;;10.38;4.97;;;;;;;20.76;49.96;100636.75;10261651;28;20059;-61
2021/07/20 21:46:00;;;;;;;5.10;4.53;;;;;;;20.62;49.91;100632.09;10255181;28;20050;-61
2021/07/20 21:51:01;;;;;;;5.72;4.72;;;;;;;20.47;50.50;100627.44;10255724;28;20051;-62
2021/07/20 21:56:03;;;;;;;6.88;5.18;;;;;;;20.39;50.83;100635.63;10258438;28;20054;-60
2021/07/20 22:01:05;;;;;;;7.90;4.45;;;;;;;20.28;50.97;100641.44;10249448;28;20054;-60
2021/07/20 22:06:06;;;;;;;6.47;4.63;;;;;;;20.29;50.64;100643.13;10255420;28;20135;-61
2021/07/20 22:11:08;;;;;;;7.35;4.25;;;;;;;20.01;50.99;100643.63;10255531;28;20049;-62
2021/07/20 22:16:09;;;;;;;5.88;4.40;;;;;;;20.00;51.23;100644.63;10254165;28;20043;-61
2021/07/20 22:21:11;;;;;;;5.72;4.40;;;;;;;19.98;51.24;100643.94;10252590;28;20050;-61
2021/07/20 22:26:13;;;;;;;6.43;4.40;;;;;;;19.93;51.79;100646.34;10250914;28;20046;-61
2021/07/20 22:31:15;;;;;;;7.22;4.68;;;;;;;19.80;52.16;100656.84;10257051;28;20183;-59
2021/07/20 22:36:17;;;;;;;8.75;5.13;;;;;;;19.66;52.41;100661.91;10253433;28;20566;-59
2021/07/20 22:41:19;;;;;;;5.97;4.70;;;;;;;19.46;52.88;100666.03;10255394;28;20046;-59
2021/07/20 22:46:23;;;;;;;5.93;4.53;;;;;;;19.31;53.44;100657.78;10252154;28;20598;-60
2021/07/20 22:51:25;;;;;;;7.30;5.20;;;;;;;19.30;53.42;100670.44;10252024;28;20050;-60
2021/07/20 22:56:26;;;;;;;5.97;4.50;;;;;;;19.38;52.93;100665.03;10250326;28;20058;-61
2021/07/20 23:01:28;;;;;;;5.15;4.53;;;;;;;19.39;52.93;100666.69;10240258;28;20061;-60
2021/07/20 23:06:30;;;;;;;7.57;5.03;;;;;;;19.38;52.98;100675.84;10252434;28;20133;-60
2021/07/20 23:11:32;;;;;;;4.60;4.20;;;;;;;19.19;53.39;100671.63;10247343;28;20054;-60
2021/07/20 23:16:34;;;;;;;6.03;4.57;;;;;;;19.29;53.26;100679.56;10255505;28;20061;-60
2021/07/20 23:21:35;;;;;;;9.00;4.95;;;;;;;19.29;53.16;100682.25;10254361;28;20109;-61